sensor_id;sensor_type;location;lat;lon;timestamp;P1;durP1;ratioP1;P2;durP2;ratioP2
64684;SDS011;51109;47.414;18.954;2022-10-16T00:00:34;6.78;;;3.80;;
64684;SDS011;51109;47.414;18.954;2022-10-16T00:03:01;5.78;;;3.83;;
64684;SDS011;51109;47.414;18.954;2022-10-16T00:05:29;5.82;;;3.65;;
64684;SDS011;51109;47.414;18.954;2022-10-16T00:07:55;6.90;;;3.60;;
64684;SDS011;51109;47.414;18.954;2022-10-16T00:10:21;7.28;;;3.63;;
64684;SDS011;51109;47.414;18.954;2022-10-16T00:12:47;6.30;;;3.40;;
64684;SDS011;51109;47.414;18.954;2022-10-16T00:15:13;5.85;;;3.70;;
64684;SDS011;51109;47.414;18.954;2022-10-16T00:17:40;4.72;;;3.33;;
64684;SDS011;51109;47.414;18.954;2022-10-16T00:20:06;5.13;;;3.67;;
64684;SDS011;51109;47.414;18.954;2022-10-16T00:22:32;6.18;;;4.15;;
64684;SDS011;51109;47.414;18.954;2022-10-16T00:24:58;5.82;;;4.20;;
64684;SDS011;51109;47.414;18.954;2022-10-16T00:27:24;5.40;;;3.70;;
64684;SDS011;51109;47.414;18.954;2022-10-16T00:29:50;5.90;;;3.88;;
64684;SDS011;51109;47.414;18.954;2022-10-16T00:32:20;6.03;;;3.83;;
64684;SDS011;51109;47.414;18.954;2022-10-16T00:34:46;7.07;;;4.15;;
64684;SDS011;51109;47.414;18.954;2022-10-16T00:37:12;6.47;;;3.75;;
64684;SDS011;51109;47.414;18.954;2022-10-16T00:39:39;7.47;;;4.18;;
64684;SDS011;51109;47.414;18.954;2022-10-16T00:42:05;5.97;;;4.35;;
64684;SDS011;51109;47.414;18.954;2022-10-16T00:44:50;5.72;;;4.03;;
64684;SDS011;51109;47.414;18.954;2022-10-16T00:47:23;5.22;;;3.88;;
64684;SDS011;51109;47.414;18.954;2022-10-16T00:52:39;5.97;;;4.03;;
64684;SDS011;51109;47.414;18.954;2022-10-16T00:55:09;5.30;;;3.47;;
64684;SDS011;51109;47.414;18.954;2022-10-16T00:57:35;6.35;;;3.35;;
64684;SDS011;51109;47.414;18.954;2022-10-16T01:00:07;6.68;;;4.20;;
64684;SDS011;51109;47.414;18.954;2022-10-16T01:02:35;5.95;;;3.80;;
64684;SDS011;51109;47.414;18.954;2022-10-16T01:05:02;11.85;;;4.25;;
64684;SDS011;51109;47.414;18.954;2022-10-16T01:10:29;6.25;;;3.88;;
64684;SDS011;51109;47.414;18.954;2022-10-16T01:13:12;5.55;;;3.45;;
64684;SDS011;51109;47.414;18.954;2022-10-16T01:15:54;5.05;;;3.75;;
64684;SDS011;51109;47.414;18.954;2022-10-16T01:21:28;6.25;;;3.88;;
64684;SDS011;51109;47.414;18.954;2022-10-16T01:29:55;7.28;;;4.32;;
64684;SDS011;51109;47.414;18.954;2022-10-16T01:38:00;7.90;;;4.63;;
64684;SDS011;51109;47.414;18.954;2022-10-16T01:40:44;6.80;;;3.95;;
64684;SDS011;51109;47.414;18.954;2022-10-16T01:43:17;14.40;;;5.15;;
64684;SDS011;51109;47.414;18.954;2022-10-16T01:45:46;11.10;;;4.60;;
64684;SDS011;51109;47.414;18.954;2022-10-16T01:48:13;6.95;;;4.15;;
64684;SDS011;51109;47.414;18.954;2022-10-16T01:50:43;7.55;;;3.97;;
64684;SDS011;51109;47.414;18.954;2022-10-16T01:53:14;6.40;;;3.72;;
64684;SDS011;51109;47.414;18.954;2022-10-16T01:55:44;6.30;;;4.22;;
64684;SDS011;51109;47.414;18.954;2022-10-16T01:58:13;7.80;;;4.22;;
64684;SDS011;51109;47.414;18.954;2022-10-16T02:00:40;6.22;;;3.85;;
64684;SDS011;51109;47.414;18.954;2022-10-16T02:03:09;4.75;;;3.30;;
64684;SDS011;51109;47.414;18.954;2022-10-16T02:05:39;4.10;;;3.15;;
64684;SDS011;51109;47.414;18.954;2022-10-16T02:08:06;5.88;;;3.80;;
64684;SDS011;51109;47.414;18.954;2022-10-16T02:10:34;6.55;;;3.58;;
64684;SDS011;51109;47.414;18.954;2022-10-16T02:13:03;5.90;;;3.65;;
64684;SDS011;51109;47.414;18.954;2022-10-16T02:15:34;5.70;;;3.75;;
64684;SDS011;51109;47.414;18.954;2022-10-16T02:18:00;6.85;;;4.07;;
64684;SDS011;51109;47.414;18.954;2022-10-16T02:20:28;6.30;;;3.67;;
64684;SDS011;51109;47.414;18.954;2022-10-16T02:22:57;6.47;;;4.05;;
64684;SDS011;51109;47.414;18.954;2022-10-16T02:25:36;5.03;;;3.85;;
64684;SDS011;51109;47.414;18.954;2022-10-16T02:28:17;5.68;;;3.72;;
64684;SDS011;51109;47.414;18.954;2022-10-16T02:30:57;5.07;;;3.78;;
64684;SDS011;51109;47.414;18.954;2022-10-16T02:33:26;5.68;;;3.38;;
64684;SDS011;51109;47.414;18.954;2022-10-16T02:35:54;6.13;;;3.70;;
64684;SDS011;51109;47.414;18.954;2022-10-16T02:38:21;7.22;;;3.60;;
64684;SDS011;51109;47.414;18.954;2022-10-16T02:40:48;5.72;;;3.40;;
64684;SDS011;51109;47.414;18.954;2022-10-16T02:43:14;4.55;;;3.30;;
64684;SDS011;51109;47.414;18.954;2022-10-16T02:45:41;6.57;;;4.28;;
64684;SDS011;51109;47.414;18.954;2022-10-16T02:48:07;5.40;;;3.15;;
64684;SDS011;51109;47.414;18.954;2022-10-16T02:50:33;6.38;;;3.60;;
64684;SDS011;51109;47.414;18.954;2022-10-16T02:52:59;6.78;;;3.85;;
64684;SDS011;51109;47.414;18.954;2022-10-16T02:55:25;5.35;;;3.95;;
64684;SDS011;51109;47.414;18.954;2022-10-16T02:57:53;7.63;;;4.10;;
64684;SDS011;51109;47.414;18.954;2022-10-16T03:00:19;7.38;;;3.58;;
64684;SDS011;51109;47.414;18.954;2022-10-16T03:02:46;5.47;;;3.80;;
64684;SDS011;51109;47.414;18.954;2022-10-16T03:05:12;7.72;;;3.35;;
64684;SDS011;51109;47.414;18.954;2022-10-16T03:07:39;4.90;;;3.42;;
64684;SDS011;51109;47.414;18.954;2022-10-16T03:10:05;7.75;;;3.20;;
64684;SDS011;51109;47.414;18.954;2022-10-16T03:12:32;5.13;;;3.53;;
64684;SDS011;51109;47.414;18.954;2022-10-16T03:14:57;3.97;;;3.17;;
64684;SDS011;51109;47.414;18.954;2022-10-16T03:17:24;4.40;;;3.38;;
64684;SDS011;51109;47.414;18.954;2022-10-16T03:19:50;4.93;;;3.75;;
64684;SDS011;51109;47.414;18.954;2022-10-16T03:22:16;6.50;;;3.90;;
64684;SDS011;51109;47.414;18.954;2022-10-16T03:24:42;6.15;;;3.53;;
64684;SDS011;51109;47.414;18.954;2022-10-16T03:27:08;5.72;;;3.50;;
64684;SDS011;51109;47.414;18.954;2022-10-16T03:29:34;6.32;;;3.88;;
64684;SDS011;51109;47.414;18.954;2022-10-16T03:32:00;6.32;;;4.15;;
64684;SDS011;51109;47.414;18.954;2022-10-16T03:34:26;8.50;;;3.35;;
64684;SDS011;51109;47.414;18.954;2022-10-16T03:36:52;6.75;;;3.92;;
64684;SDS011;51109;47.414;18.954;2022-10-16T03:39:18;6.30;;;3.55;;
64684;SDS011;51109;47.414;18.954;2022-10-16T03:41:44;6.22;;;3.50;;
64684;SDS011;51109;47.414;18.954;2022-10-16T03:44:11;7.35;;;3.28;;
64684;SDS011;51109;47.414;18.954;2022-10-16T03:46:47;6.85;;;3.97;;
64684;SDS011;51109;47.414;18.954;2022-10-16T03:49:13;4.97;;;3.20;;
64684;SDS011;51109;47.414;18.954;2022-10-16T03:51:38;7.25;;;3.95;;
64684;SDS011;51109;47.414;18.954;2022-10-16T03:54:04;7.70;;;3.85;;
64684;SDS011;51109;47.414;18.954;2022-10-16T03:56:30;5.47;;;3.35;;
64684;SDS011;51109;47.414;18.954;2022-10-16T03:58:56;5.63;;;3.50;;
64684;SDS011;51109;47.414;18.954;2022-10-16T04:01:22;5.38;;;3.10;;
64684;SDS011;51109;47.414;18.954;2022-10-16T04:03:48;5.68;;;3.75;;
64684;SDS011;51109;47.414;18.954;2022-10-16T04:06:14;5.85;;;3.35;;
64684;SDS011;51109;47.414;18.954;2022-10-16T04:08:41;6.18;;;4.10;;
64684;SDS011;51109;47.414;18.954;2022-10-16T04:11:08;4.57;;;3.25;;
64684;SDS011;51109;47.414;18.954;2022-10-16T04:13:34;8.00;;;3.50;;
64684;SDS011;51109;47.414;18.954;2022-10-16T04:16:00;6.50;;;4.07;;
64684;SDS011;51109;47.414;18.954;2022-10-16T04:18:26;4.70;;;3.22;;
64684;SDS011;51109;47.414;18.954;2022-10-16T04:20:55;7.63;;;3.72;;
64684;SDS011;51109;47.414;18.954;2022-10-16T04:23:21;6.53;;;3.47;;
64684;SDS011;51109;47.414;18.954;2022-10-16T04:25:48;5.85;;;3.38;;
64684;SDS011;51109;47.414;18.954;2022-10-16T04:28:14;5.35;;;3.63;;
64684;SDS011;51109;47.414;18.954;2022-10-16T04:30:40;6.80;;;4.25;;
64684;SDS011;51109;47.414;18.954;2022-10-16T04:33:06;7.65;;;3.00;;
64684;SDS011;51109;47.414;18.954;2022-10-16T04:35:33;5.18;;;3.90;;
64684;SDS011;51109;47.414;18.954;2022-10-16T04:37:59;6.45;;;4.13;;
64684;SDS011;51109;47.414;18.954;2022-10-16T04:40:25;6.82;;;3.22;;
64684;SDS011;51109;47.414;18.954;2022-10-16T04:42:51;10.68;;;3.60;;
64684;SDS011;51109;47.414;18.954;2022-10-16T04:45:17;9.95;;;3.67;;
64684;SDS011;51109;47.414;18.954;2022-10-16T04:47:43;4.75;;;3.33;;
64684;SDS011;51109;47.414;18.954;2022-10-16T04:50:09;8.05;;;3.58;;
64684;SDS011;51109;47.414;18.954;2022-10-16T04:52:36;7.55;;;3.95;;
64684;SDS011;51109;47.414;18.954;2022-10-16T04:55:01;6.32;;;3.83;;
64684;SDS011;51109;47.414;18.954;2022-10-16T04:57:28;6.57;;;3.85;;
64684;SDS011;51109;47.414;18.954;2022-10-16T04:59:54;7.63;;;3.75;;
64684;SDS011;51109;47.414;18.954;2022-10-16T05:02:20;6.72;;;4.00;;
64684;SDS011;51109;47.414;18.954;2022-10-16T05:04:46;6.57;;;3.83;;
64684;SDS011;51109;47.414;18.954;2022-10-16T05:07:12;4.65;;;3.25;;
64684;SDS011;51109;47.414;18.954;2022-10-16T05:09:38;4.55;;;3.65;;
64684;SDS011;51109;47.414;18.954;2022-10-16T05:12:04;4.85;;;4.18;;
64684;SDS011;51109;47.414;18.954;2022-10-16T05:14:30;4.85;;;3.72;;
64684;SDS011;51109;47.414;18.954;2022-10-16T05:16:56;4.53;;;3.70;;
64684;SDS011;51109;47.414;18.954;2022-10-16T05:19:22;8.30;;;3.53;;
64684;SDS011;51109;47.414;18.954;2022-10-16T05:21:48;6.47;;;3.85;;
64684;SDS011;51109;47.414;18.954;2022-10-16T05:24:14;5.32;;;3.67;;
64684;SDS011;51109;47.414;18.954;2022-10-16T05:26:39;5.53;;;3.88;;
64684;SDS011;51109;47.414;18.954;2022-10-16T05:29:05;9.00;;;5.10;;
64684;SDS011;51109;47.414;18.954;2022-10-16T05:31:31;7.60;;;5.05;;
64684;SDS011;51109;47.414;18.954;2022-10-16T05:34:00;8.02;;;4.45;;
64684;SDS011;51109;47.414;18.954;2022-10-16T05:36:27;5.50;;;3.70;;
64684;SDS011;51109;47.414;18.954;2022-10-16T05:38:52;6.65;;;4.25;;
64684;SDS011;51109;47.414;18.954;2022-10-16T05:41:18;8.05;;;4.80;;
64684;SDS011;51109;47.414;18.954;2022-10-16T05:43:47;10.13;;;5.72;;
64684;SDS011;51109;47.414;18.954;2022-10-16T05:46:13;8.48;;;5.10;;
64684;SDS011;51109;47.414;18.954;2022-10-16T05:48:40;9.20;;;4.53;;
64684;SDS011;51109;47.414;18.954;2022-10-16T05:51:06;11.25;;;4.80;;
64684;SDS011;51109;47.414;18.954;2022-10-16T05:53:35;8.00;;;4.38;;
64684;SDS011;51109;47.414;18.954;2022-10-16T05:56:02;5.93;;;4.32;;
64684;SDS011;51109;47.414;18.954;2022-10-16T05:58:33;8.02;;;3.75;;
64684;SDS011;51109;47.414;18.954;2022-10-16T06:03:30;6.35;;;4.10;;
64684;SDS011;51109;47.414;18.954;2022-10-16T06:05:56;7.95;;;4.28;;
64684;SDS011;51109;47.414;18.954;2022-10-16T06:08:22;5.10;;;3.75;;
64684;SDS011;51109;47.414;18.954;2022-10-16T06:10:49;7.88;;;4.72;;
64684;SDS011;51109;47.414;18.954;2022-10-16T06:13:25;8.32;;;3.97;;
64684;SDS011;51109;47.414;18.954;2022-10-16T06:15:50;6.75;;;4.63;;
64684;SDS011;51109;47.414;18.954;2022-10-16T06:18:16;6.32;;;3.95;;
64684;SDS011;51109;47.414;18.954;2022-10-16T06:20:42;8.85;;;3.97;;
64684;SDS011;51109;47.414;18.954;2022-10-16T06:23:08;5.28;;;3.83;;
64684;SDS011;51109;47.414;18.954;2022-10-16T06:25:34;6.03;;;3.85;;
64684;SDS011;51109;47.414;18.954;2022-10-16T06:28:00;6.70;;;4.30;;
64684;SDS011;51109;47.414;18.954;2022-10-16T06:30:26;8.32;;;4.53;;
64684;SDS011;51109;47.414;18.954;2022-10-16T06:32:51;6.57;;;4.32;;
64684;SDS011;51109;47.414;18.954;2022-10-16T06:35:17;6.97;;;4.15;;
64684;SDS011;51109;47.414;18.954;2022-10-16T06:37:43;6.32;;;4.13;;
64684;SDS011;51109;47.414;18.954;2022-10-16T06:40:09;5.72;;;3.88;;
64684;SDS011;51109;47.414;18.954;2022-10-16T06:42:35;7.63;;;4.47;;
64684;SDS011;51109;47.414;18.954;2022-10-16T06:45:01;7.38;;;4.15;;
64684;SDS011;51109;47.414;18.954;2022-10-16T06:47:27;6.90;;;4.53;;
64684;SDS011;51109;47.414;18.954;2022-10-16T06:49:53;7.25;;;3.92;;
64684;SDS011;51109;47.414;18.954;2022-10-16T06:52:18;6.53;;;4.22;;
64684;SDS011;51109;47.414;18.954;2022-10-16T06:54:44;4.80;;;3.70;;
64684;SDS011;51109;47.414;18.954;2022-10-16T06:57:10;4.88;;;4.38;;
64684;SDS011;51109;47.414;18.954;2022-10-16T06:59:36;9.48;;;5.22;;
64684;SDS011;51109;47.414;18.954;2022-10-16T07:02:02;10.07;;;4.38;;
64684;SDS011;51109;47.414;18.954;2022-10-16T07:04:28;6.88;;;3.95;;
64684;SDS011;51109;47.414;18.954;2022-10-16T07:06:54;7.50;;;4.28;;
64684;SDS011;51109;47.414;18.954;2022-10-16T07:09:20;5.95;;;3.75;;
64684;SDS011;51109;47.414;18.954;2022-10-16T07:11:45;7.15;;;4.22;;
64684;SDS011;51109;47.414;18.954;2022-10-16T07:14:18;7.47;;;4.20;;
64684;SDS011;51109;47.414;18.954;2022-10-16T07:16:45;6.15;;;4.28;;
64684;SDS011;51109;47.414;18.954;2022-10-16T07:19:12;7.30;;;4.10;;
64684;SDS011;51109;47.414;18.954;2022-10-16T07:21:40;12.15;;;5.00;;
64684;SDS011;51109;47.414;18.954;2022-10-16T07:24:10;6.47;;;4.35;;
64684;SDS011;51109;47.414;18.954;2022-10-16T07:26:38;7.25;;;4.60;;
64684;SDS011;51109;47.414;18.954;2022-10-16T07:29:06;6.85;;;3.92;;
64684;SDS011;51109;47.414;18.954;2022-10-16T07:31:36;7.35;;;4.15;;
64684;SDS011;51109;47.414;18.954;2022-10-16T07:34:03;6.70;;;4.40;;
64684;SDS011;51109;47.414;18.954;2022-10-16T07:36:29;10.30;;;4.18;;
64684;SDS011;51109;47.414;18.954;2022-10-16T07:38:54;7.28;;;4.38;;
64684;SDS011;51109;47.414;18.954;2022-10-16T07:41:20;10.15;;;4.78;;
64684;SDS011;51109;47.414;18.954;2022-10-16T07:43:47;7.70;;;4.28;;
64684;SDS011;51109;47.414;18.954;2022-10-16T07:46:14;8.27;;;4.60;;
64684;SDS011;51109;47.414;18.954;2022-10-16T07:48:40;6.90;;;4.85;;
64684;SDS011;51109;47.414;18.954;2022-10-16T07:51:06;5.60;;;4.07;;
64684;SDS011;51109;47.414;18.954;2022-10-16T07:53:32;9.05;;;4.88;;
64684;SDS011;51109;47.414;18.954;2022-10-16T07:56:02;6.03;;;4.93;;
64684;SDS011;51109;47.414;18.954;2022-10-16T07:58:31;5.93;;;4.78;;
64684;SDS011;51109;47.414;18.954;2022-10-16T08:00:58;6.15;;;4.53;;
64684;SDS011;51109;47.414;18.954;2022-10-16T08:03:24;7.45;;;4.78;;
64684;SDS011;51109;47.414;18.954;2022-10-16T08:05:51;7.32;;;4.90;;
64684;SDS011;51109;47.414;18.954;2022-10-16T08:08:21;11.85;;;5.70;;
64684;SDS011;51109;47.414;18.954;2022-10-16T08:10:47;8.25;;;5.80;;
64684;SDS011;51109;47.414;18.954;2022-10-16T08:13:13;8.55;;;4.07;;
64684;SDS011;51109;47.414;18.954;2022-10-16T08:15:40;9.48;;;4.82;;
64684;SDS011;51109;47.414;18.954;2022-10-16T08:18:07;8.55;;;5.25;;
64684;SDS011;51109;47.414;18.954;2022-10-16T08:20:34;7.28;;;4.50;;
64684;SDS011;51109;47.414;18.954;2022-10-16T08:23:00;8.93;;;4.35;;
64684;SDS011;51109;47.414;18.954;2022-10-16T08:25:26;5.35;;;4.05;;
64684;SDS011;51109;47.414;18.954;2022-10-16T08:27:53;6.55;;;4.57;;
64684;SDS011;51109;47.414;18.954;2022-10-16T08:30:20;7.40;;;4.75;;
64684;SDS011;51109;47.414;18.954;2022-10-16T08:32:47;6.93;;;4.50;;
64684;SDS011;51109;47.414;18.954;2022-10-16T08:35:13;7.88;;;4.32;;
64684;SDS011;51109;47.414;18.954;2022-10-16T08:37:40;10.45;;;4.80;;
64684;SDS011;51109;47.414;18.954;2022-10-16T08:40:11;6.88;;;4.57;;
64684;SDS011;51109;47.414;18.954;2022-10-16T08:48:20;5.93;;;4.32;;
64684;SDS011;51109;47.414;18.954;2022-10-16T08:51:07;7.35;;;4.75;;
64684;SDS011;51109;47.414;18.954;2022-10-16T08:53:45;6.10;;;4.20;;
64684;SDS011;51109;47.414;18.954;2022-10-16T08:56:21;9.30;;;4.72;;
64684;SDS011;51109;47.414;18.954;2022-10-16T08:58:47;10.00;;;4.88;;
64684;SDS011;51109;47.414;18.954;2022-10-16T09:01:15;8.85;;;4.65;;
64684;SDS011;51109;47.414;18.954;2022-10-16T09:06:45;6.47;;;4.50;;
64684;SDS011;51109;47.414;18.954;2022-10-16T09:14:47;8.65;;;4.32;;
64684;SDS011;51109;47.414;18.954;2022-10-16T09:23:08;7.10;;;4.72;;
64684;SDS011;51109;47.414;18.954;2022-10-16T09:25:35;6.13;;;4.57;;
64684;SDS011;51109;47.414;18.954;2022-10-16T09:28:04;7.72;;;4.90;;
64684;SDS011;51109;47.414;18.954;2022-10-16T09:30:30;11.85;;;5.70;;
64684;SDS011;51109;47.414;18.954;2022-10-16T09:32:57;8.40;;;4.57;;
64684;SDS011;51109;47.414;18.954;2022-10-16T09:35:31;7.07;;;4.90;;
64684;SDS011;51109;47.414;18.954;2022-10-16T09:38:06;6.80;;;4.63;;
64684;SDS011;51109;47.414;18.954;2022-10-16T09:40:34;10.05;;;5.05;;
64684;SDS011;51109;47.414;18.954;2022-10-16T09:43:17;5.80;;;4.97;;
64684;SDS011;51109;47.414;18.954;2022-10-16T09:48:54;7.53;;;4.57;;
64684;SDS011;51109;47.414;18.954;2022-10-16T09:51:29;4.85;;;4.38;;
64684;SDS011;51109;47.414;18.954;2022-10-16T09:54:11;8.02;;;4.68;;
64684;SDS011;51109;47.414;18.954;2022-10-16T09:56:38;8.37;;;5.50;;
64684;SDS011;51109;47.414;18.954;2022-10-16T09:59:15;6.53;;;4.47;;
64684;SDS011;51109;47.414;18.954;2022-10-16T10:01:44;8.45;;;4.90;;
64684;SDS011;51109;47.414;18.954;2022-10-16T10:04:16;8.05;;;4.72;;
64684;SDS011;51109;47.414;18.954;2022-10-16T10:06:43;4.97;;;4.03;;
64684;SDS011;51109;47.414;18.954;2022-10-16T10:09:21;6.85;;;4.57;;
64684;SDS011;51109;47.414;18.954;2022-10-16T10:11:57;9.25;;;5.35;;
64684;SDS011;51109;47.414;18.954;2022-10-16T10:14:30;8.30;;;4.47;;
64684;SDS011;51109;47.414;18.954;2022-10-16T10:17:17;6.68;;;4.28;;
64684;SDS011;51109;47.414;18.954;2022-10-16T10:22:40;6.72;;;4.60;;
64684;SDS011;51109;47.414;18.954;2022-10-16T10:33:40;9.02;;;4.38;;
64684;SDS011;51109;47.414;18.954;2022-10-16T10:55:26;4.45;;;3.53;;
64684;SDS011;51109;47.414;18.954;2022-10-16T11:01:21;6.05;;;4.32;;
64684;SDS011;51109;47.414;18.954;2022-10-16T11:04:20;6.38;;;3.80;;
64684;SDS011;51109;47.414;18.954;2022-10-16T11:06:57;4.57;;;3.38;;
64684;SDS011;51109;47.414;18.954;2022-10-16T11:12:36;4.40;;;3.20;;
64684;SDS011;51109;47.414;18.954;2022-10-16T11:20:26;3.10;;;2.80;;
64684;SDS011;51109;47.414;18.954;2022-10-16T11:23:02;4.57;;;3.25;;
64684;SDS011;51109;47.414;18.954;2022-10-16T11:25:36;4.72;;;3.80;;
64684;SDS011;51109;47.414;18.954;2022-10-16T11:28:03;6.40;;;3.47;;
64684;SDS011;51109;47.414;18.954;2022-10-16T11:30:43;5.32;;;3.10;;
64684;SDS011;51109;47.414;18.954;2022-10-16T11:36:14;3.90;;;3.10;;
64684;SDS011;51109;47.414;18.954;2022-10-16T11:39:02;5.07;;;3.50;;
64684;SDS011;51109;47.414;18.954;2022-10-16T11:46:40;4.72;;;2.88;;
64684;SDS011;51109;47.414;18.954;2022-10-16T11:49:13;6.03;;;3.10;;
64684;SDS011;51109;47.414;18.954;2022-10-16T11:54:47;5.00;;;2.67;;
64684;SDS011;51109;47.414;18.954;2022-10-16T11:57:34;5.35;;;3.67;;
64684;SDS011;51109;47.414;18.954;2022-10-16T12:00:08;3.63;;;2.97;;
64684;SDS011;51109;47.414;18.954;2022-10-16T12:08:12;4.03;;;2.88;;
64684;SDS011;51109;47.414;18.954;2022-10-16T12:10:41;4.20;;;2.90;;
64684;SDS011;51109;47.414;18.954;2022-10-16T12:14:03;4.80;;;3.15;;
64684;SDS011;51109;47.414;18.954;2022-10-16T12:18:38;5.95;;;2.55;;
64684;SDS011;51109;47.414;18.954;2022-10-16T12:21:06;4.93;;;3.25;;
64684;SDS011;51109;47.414;18.954;2022-10-16T12:23:33;4.30;;;2.92;;
64684;SDS011;51109;47.414;18.954;2022-10-16T12:26:03;3.80;;;2.63;;
64684;SDS011;51109;47.414;18.954;2022-10-16T12:28:31;4.50;;;3.38;;
64684;SDS011;51109;47.414;18.954;2022-10-16T12:33:26;3.80;;;2.83;;
64684;SDS011;51109;47.414;18.954;2022-10-16T12:35:58;3.60;;;2.80;;
64684;SDS011;51109;47.414;18.954;2022-10-16T12:38:38;3.22;;;2.78;;
64684;SDS011;51109;47.414;18.954;2022-10-16T12:41:12;4.38;;;2.95;;
64684;SDS011;51109;47.414;18.954;2022-10-16T12:44:00;3.47;;;3.00;;
64684;SDS011;51109;47.414;18.954;2022-10-16T12:51:37;3.97;;;3.00;;
64684;SDS011;51109;47.414;18.954;2022-10-16T13:00:09;8.68;;;3.10;;
64684;SDS011;51109;47.414;18.954;2022-10-16T13:11:03;3.25;;;2.30;;
64684;SDS011;51109;47.414;18.954;2022-10-16T13:20:16;3.13;;;2.53;;
64684;SDS011;51109;47.414;18.954;2022-10-16T13:25:29;4.10;;;2.88;;
64684;SDS011;51109;47.414;18.954;2022-10-16T13:28:03;5.10;;;2.70;;
64684;SDS011;51109;47.414;18.954;2022-10-16T13:30:35;4.95;;;3.22;;
64684;SDS011;51109;47.414;18.954;2022-10-16T13:35:48;6.28;;;2.95;;
64684;SDS011;51109;47.414;18.954;2022-10-16T13:38:21;3.67;;;3.13;;
64684;SDS011;51109;47.414;18.954;2022-10-16T13:40:59;8.40;;;2.67;;
64684;SDS011;51109;47.414;18.954;2022-10-16T13:43:35;3.38;;;2.88;;
64684;SDS011;51109;47.414;18.954;2022-10-16T13:46:04;3.17;;;2.77;;
64684;SDS011;51109;47.414;18.954;2022-10-16T13:48:33;2.80;;;2.60;;
64684;SDS011;51109;47.414;18.954;2022-10-16T13:53:35;5.85;;;3.25;;
64684;SDS011;51109;47.414;18.954;2022-10-16T13:56:02;3.28;;;2.63;;
64684;SDS011;51109;47.414;18.954;2022-10-16T13:58:29;6.32;;;3.17;;
64684;SDS011;51109;47.414;18.954;2022-10-16T14:00:57;4.00;;;2.80;;
64684;SDS011;51109;47.414;18.954;2022-10-16T14:03:23;2.78;;;2.53;;
64684;SDS011;51109;47.414;18.954;2022-10-16T14:05:53;4.05;;;2.83;;
64684;SDS011;51109;47.414;18.954;2022-10-16T14:08:22;3.45;;;2.83;;
64684;SDS011;51109;47.414;18.954;2022-10-16T14:10:50;4.72;;;3.03;;
64684;SDS011;51109;47.414;18.954;2022-10-16T14:13:19;5.05;;;2.67;;
64684;SDS011;51109;47.414;18.954;2022-10-16T14:15:52;3.65;;;2.80;;
64684;SDS011;51109;47.414;18.954;2022-10-16T14:18:23;4.45;;;2.70;;
64684;SDS011;51109;47.414;18.954;2022-10-16T14:20:52;3.85;;;3.00;;
64684;SDS011;51109;47.414;18.954;2022-10-16T14:23:28;3.08;;;2.42;;
64684;SDS011;51109;47.414;18.954;2022-10-16T14:28:35;2.97;;;2.28;;
64684;SDS011;51109;47.414;18.954;2022-10-16T14:31:16;3.92;;;2.85;;
64684;SDS011;51109;47.414;18.954;2022-10-16T14:33:50;5.53;;;2.83;;
64684;SDS011;51109;47.414;18.954;2022-10-16T14:36:15;3.40;;;2.85;;
64684;SDS011;51109;47.414;18.954;2022-10-16T14:41:30;3.80;;;2.72;;
64684;SDS011;51109;47.414;18.954;2022-10-16T14:44:02;3.22;;;2.88;;
64684;SDS011;51109;47.414;18.954;2022-10-16T14:46:34;4.82;;;2.78;;
64684;SDS011;51109;47.414;18.954;2022-10-16T14:51:38;3.65;;;2.47;;
64684;SDS011;51109;47.414;18.954;2022-10-16T14:54:13;4.30;;;2.78;;
64684;SDS011;51109;47.414;18.954;2022-10-16T14:56:54;2.90;;;2.60;;
64684;SDS011;51109;47.414;18.954;2022-10-16T14:59:30;4.40;;;2.70;;
64684;SDS011;51109;47.414;18.954;2022-10-16T15:04:45;5.00;;;2.97;;
64684;SDS011;51109;47.414;18.954;2022-10-16T15:07:11;3.33;;;3.03;;
64684;SDS011;51109;47.414;18.954;2022-10-16T15:09:38;4.90;;;2.83;;
64684;SDS011;51109;47.414;18.954;2022-10-16T15:12:03;4.57;;;2.95;;
64684;SDS011;51109;47.414;18.954;2022-10-16T15:14:29;5.25;;;3.10;;
64684;SDS011;51109;47.414;18.954;2022-10-16T15:16:55;3.83;;;3.00;;
64684;SDS011;51109;47.414;18.954;2022-10-16T15:19:21;5.68;;;3.30;;
64684;SDS011;51109;47.414;18.954;2022-10-16T15:21:49;4.70;;;3.28;;
64684;SDS011;51109;47.414;18.954;2022-10-16T15:24:15;4.15;;;2.60;;
64684;SDS011;51109;47.414;18.954;2022-10-16T15:26:41;4.43;;;2.80;;
64684;SDS011;51109;47.414;18.954;2022-10-16T15:29:13;4.17;;;2.90;;
64684;SDS011;51109;47.414;18.954;2022-10-16T15:31:39;6.32;;;3.22;;
64684;SDS011;51109;47.414;18.954;2022-10-16T15:34:08;3.80;;;3.42;;
64684;SDS011;51109;47.414;18.954;2022-10-16T15:36:36;4.90;;;2.92;;
64684;SDS011;51109;47.414;18.954;2022-10-16T15:39:04;4.22;;;3.33;;
64684;SDS011;51109;47.414;18.954;2022-10-16T15:41:30;5.10;;;3.40;;
64684;SDS011;51109;47.414;18.954;2022-10-16T15:43:56;3.80;;;3.15;;
64684;SDS011;51109;47.414;18.954;2022-10-16T15:46:23;3.13;;;2.80;;
64684;SDS011;51109;47.414;18.954;2022-10-16T15:48:50;5.80;;;4.13;;
64684;SDS011;51109;47.414;18.954;2022-10-16T15:51:16;7.82;;;4.47;;
64684;SDS011;51109;47.414;18.954;2022-10-16T15:53:43;9.60;;;4.75;;
64684;SDS011;51109;47.414;18.954;2022-10-16T15:56:11;7.13;;;4.38;;
64684;SDS011;51109;47.414;18.954;2022-10-16T15:58:38;7.28;;;3.55;;
64684;SDS011;51109;47.414;18.954;2022-10-16T16:01:04;7.00;;;4.32;;
64684;SDS011;51109;47.414;18.954;2022-10-16T16:03:31;5.50;;;3.42;;
64684;SDS011;51109;47.414;18.954;2022-10-16T16:05:58;8.05;;;3.97;;
64684;SDS011;51109;47.414;18.954;2022-10-16T16:08:28;7.05;;;3.85;;
64684;SDS011;51109;47.414;18.954;2022-10-16T16:10:58;5.55;;;3.65;;
64684;SDS011;51109;47.414;18.954;2022-10-16T16:13:29;7.55;;;4.07;;
64684;SDS011;51109;47.414;18.954;2022-10-16T16:15:55;6.68;;;4.07;;
64684;SDS011;51109;47.414;18.954;2022-10-16T16:18:22;5.50;;;3.83;;
64684;SDS011;51109;47.414;18.954;2022-10-16T16:20:49;8.13;;;4.03;;
64684;SDS011;51109;47.414;18.954;2022-10-16T16:23:16;9.32;;;5.03;;
64684;SDS011;51109;47.414;18.954;2022-10-16T16:25:42;9.98;;;5.32;;
64684;SDS011;51109;47.414;18.954;2022-10-16T16:28:08;13.88;;;8.57;;
64684;SDS011;51109;47.414;18.954;2022-10-16T16:30:36;11.75;;;7.85;;
64684;SDS011;51109;47.414;18.954;2022-10-16T16:33:02;7.43;;;5.03;;
64684;SDS011;51109;47.414;18.954;2022-10-16T16:35:31;8.75;;;4.90;;
64684;SDS011;51109;47.414;18.954;2022-10-16T16:37:57;4.80;;;3.72;;
64684;SDS011;51109;47.414;18.954;2022-10-16T16:40:23;6.68;;;3.83;;
64684;SDS011;51109;47.414;18.954;2022-10-16T16:42:49;8.30;;;3.78;;
64684;SDS011;51109;47.414;18.954;2022-10-16T16:45:15;7.88;;;4.80;;
64684;SDS011;51109;47.414;18.954;2022-10-16T16:47:40;6.88;;;3.97;;
64684;SDS011;51109;47.414;18.954;2022-10-16T16:50:06;7.45;;;4.65;;
64684;SDS011;51109;47.414;18.954;2022-10-16T16:52:34;7.13;;;4.90;;
64684;SDS011;51109;47.414;18.954;2022-10-16T16:55:01;8.55;;;5.10;;
64684;SDS011;51109;47.414;18.954;2022-10-16T16:57:27;9.93;;;5.68;;
64684;SDS011;51109;47.414;18.954;2022-10-16T16:59:53;9.05;;;5.50;;
64684;SDS011;51109;47.414;18.954;2022-10-16T17:02:19;9.77;;;5.40;;
64684;SDS011;51109;47.414;18.954;2022-10-16T17:04:48;8.38;;;4.57;;
64684;SDS011;51109;47.414;18.954;2022-10-16T17:07:14;12.68;;;5.50;;
64684;SDS011;51109;47.414;18.954;2022-10-16T17:09:39;7.35;;;4.75;;
64684;SDS011;51109;47.414;18.954;2022-10-16T17:12:05;6.97;;;5.28;;
64684;SDS011;51109;47.414;18.954;2022-10-16T17:14:31;13.32;;;4.65;;
64684;SDS011;51109;47.414;18.954;2022-10-16T17:16:57;8.38;;;4.70;;